createdAt,value
2022-10-02T00:02:24.144Z,18.98
2022-10-02T00:05:13.760Z,16.65
2022-10-02T00:08:24.052Z,17.98
2022-10-02T00:11:01.748Z,17.17
2022-10-02T00:13:41.490Z,15.18
2022-10-02T00:16:28.122Z,15.63
2022-10-02T00:18:57.183Z,15.15
2022-10-02T00:21:53.904Z,14.45
2022-10-02T00:24:27.566Z,16.45
2022-10-02T00:27:04.014Z,16.25
2022-10-02T00:29:45.824Z,17.05
2022-10-02T00:32:29.449Z,15.55
2022-10-02T00:35:20.965Z,13.23
2022-10-02T00:38:06.607Z,18.85
2022-10-02T00:40:53.650Z,15.63
2022-10-02T00:44:08.751Z,12.27
2022-10-02T00:46:43.186Z,11.65
2022-10-02T00:49:40.985Z,14.00
2022-10-02T00:52:28.093Z,13.15
2022-10-02T00:55:34.124Z,17.80
2022-10-02T00:58:16.614Z,12.15
2022-10-02T01:01:02.886Z,12.13
2022-10-02T01:03:56.638Z,12.13
2022-10-02T01:06:27.922Z,13.73
2022-10-02T01:08:56.290Z,11.85
2022-10-02T01:11:27.170Z,12.93
2022-10-02T01:13:56.119Z,11.63
2022-10-02T01:16:24.827Z,11.38
2022-10-02T01:18:53.303Z,15.35
2022-10-02T01:21:31.010Z,11.57
2022-10-02T01:24:17.455Z,10.98
2022-10-02T01:26:45.967Z,10.98
2022-10-02T01:29:14.522Z,12.65
2022-10-02T01:31:43.146Z,13.25
2022-10-02T01:34:12.416Z,11.35
2022-10-02T01:36:40.994Z,10.93
2022-10-02T01:39:09.644Z,12.18
2022-10-02T01:41:43.079Z,14.93
2022-10-02T01:44:13.189Z,13.40
2022-10-02T01:47:03.586Z,12.00
2022-10-02T01:49:44.400Z,10.07
2022-10-02T01:52:22.586Z,10.43
2022-10-02T01:55:09.791Z,13.30
2022-10-02T01:57:44.490Z,11.05
2022-10-02T02:00:26.462Z,10.70
2022-10-02T02:03:15.653Z,12.43
2022-10-02T02:05:47.865Z,11.82
2022-10-02T02:08:36.953Z,12.55
2022-10-02T02:11:15.026Z,10.77
2022-10-02T02:14:01.586Z,12.55
2022-10-02T02:16:41.398Z,11.48
2022-10-02T02:19:21.898Z,11.60
2022-10-02T02:21:58.747Z,10.37
2022-10-02T02:24:42.028Z,10.77
2022-10-02T02:27:17.799Z,12.15
2022-10-02T02:29:51.435Z,11.75
2022-10-02T02:32:27.203Z,9.30
2022-10-02T02:35:04.308Z,9.38
2022-10-02T02:37:35.865Z,10.00
2022-10-02T02:40:13.265Z,12.32
2022-10-02T02:43:05.112Z,10.98
2022-10-02T02:45:43.619Z,10.27
2022-10-02T02:48:21.435Z,9.55
2022-10-02T02:50:59.479Z,13.32
2022-10-02T02:53:38.313Z,10.82
2022-10-02T02:56:10.189Z,13.48
2022-10-02T02:58:47.344Z,10.85
2022-10-02T03:01:15.966Z,10.75
2022-10-02T03:03:44.747Z,11.32
2022-10-02T03:06:16.096Z,10.85
2022-10-02T03:08:47.727Z,9.55
2022-10-02T03:11:42.273Z,11.63
2022-10-02T03:14:37.218Z,10.13
2022-10-02T03:17:20.000Z,11.20
2022-10-02T03:20:12.311Z,9.75
2022-10-02T03:23:00.280Z,9.40
2022-10-02T03:25:51.348Z,12.43
2022-10-02T03:28:43.543Z,9.20
2022-10-02T03:31:13.870Z,7.97
2022-10-02T03:33:43.783Z,9.52
2022-10-02T03:36:17.998Z,12.52
2022-10-02T03:38:56.867Z,7.72
2022-10-02T03:41:34.818Z,10.02
2022-10-02T03:44:03.066Z,9.50
2022-10-02T03:46:31.397Z,13.60
2022-10-02T03:49:00.102Z,11.73
2022-10-02T03:51:28.530Z,9.93
2022-10-02T03:53:57.990Z,9.18
2022-10-02T03:56:33.590Z,16.77
2022-10-02T03:59:05.420Z,8.13
2022-10-02T04:02:00.582Z,12.48
2022-10-02T04:04:37.975Z,9.40
2022-10-02T04:07:15.175Z,8.48
2022-10-02T04:10:03.960Z,8.10
2022-10-02T04:12:40.324Z,8.20
2022-10-02T04:16:02.797Z,7.40
2022-10-02T04:18:41.723Z,9.43
2022-10-02T04:21:37.455Z,8.75
2022-10-02T04:24:28.159Z,6.20
2022-10-02T04:27:10.468Z,7.78
2022-10-02T04:29:46.275Z,6.20
2022-10-02T04:32:17.123Z,7.47
2022-10-02T04:34:46.411Z,8.55
2022-10-02T04:37:42.479Z,8.52
2022-10-02T04:40:36.165Z,8.40
2022-10-02T04:43:15.659Z,7.65
2022-10-02T04:46:23.380Z,8.15
2022-10-02T04:49:10.425Z,5.20
2022-10-02T04:52:15.251Z,7.95
2022-10-02T04:55:08.671Z,4.65
2022-10-02T04:57:59.231Z,5.53
2022-10-02T05:00:36.669Z,10.63
2022-10-02T05:03:36.450Z,8.77
2022-10-02T05:06:22.913Z,8.65
2022-10-02T05:09:03.884Z,8.80
2022-10-02T05:11:53.444Z,9.80
2022-10-02T05:15:03.516Z,9.82
2022-10-02T05:18:13.541Z,9.93
2022-10-02T05:20:59.358Z,7.72
2022-10-02T05:23:42.867Z,7.55
2022-10-02T05:26:48.624Z,9.50
2022-10-02T05:29:43.446Z,10.93
2022-10-02T05:32:27.316Z,10.73
2022-10-02T05:35:33.368Z,10.77
2022-10-02T05:38:17.195Z,11.45
2022-10-02T05:41:04.766Z,9.77
2022-10-02T05:43:45.966Z,13.68
2022-10-02T05:46:26.058Z,11.23
2022-10-02T05:49:00.668Z,7.78
2022-10-02T05:51:44.852Z,6.43
2022-10-02T05:54:25.434Z,11.68
2022-10-02T05:57:16.641Z,8.88
2022-10-02T05:59:57.402Z,7.33
2022-10-02T06:02:44.130Z,10.15
2022-10-02T06:05:21.247Z,8.00
2022-10-02T06:07:54.733Z,8.95
2022-10-02T06:10:30.343Z,6.97
2022-10-02T06:13:08.739Z,6.70
2022-10-02T06:15:48.462Z,10.55
2022-10-02T06:18:31.699Z,9.40
2022-10-02T06:21:15.466Z,12.93
2022-10-02T06:23:48.513Z,11.07
2022-10-02T06:26:30.981Z,10.18
2022-10-02T06:29:19.266Z,10.15
2022-10-02T06:31:59.318Z,11.77
2022-10-02T06:34:28.775Z,11.40
2022-10-02T06:37:14.245Z,11.32
2022-10-02T06:39:59.615Z,7.00
2022-10-02T06:42:44.486Z,6.88
2022-10-02T06:45:35.122Z,8.05
2022-10-02T06:48:28.947Z,8.40
2022-10-02T06:51:11.518Z,9.32
2022-10-02T06:53:54.643Z,6.40
2022-10-02T06:56:49.550Z,8.88
2022-10-02T06:59:36.123Z,9.15
2022-10-02T07:02:19.697Z,14.27
2022-10-02T07:05:24.736Z,7.07
2022-10-02T07:08:27.908Z,8.68
2022-10-02T07:11:03.537Z,7.82
2022-10-02T07:13:44.193Z,9.45
2022-10-02T07:16:28.749Z,9.68
2022-10-02T07:19:03.201Z,4.28
2022-10-02T07:22:39.597Z,9.63
2022-10-02T07:25:20.172Z,8.63
2022-10-02T07:28:19.407Z,8.50
2022-10-02T07:31:12.890Z,9.00
2022-10-02T07:34:14.897Z,9.38
2022-10-02T07:36:54.722Z,10.73
2022-10-02T07:39:43.521Z,9.23
2022-10-02T07:42:47.577Z,7.43
2022-10-02T07:45:26.416Z,14.13
2022-10-02T07:48:00.726Z,7.03
2022-10-02T07:50:59.102Z,8.20
2022-10-02T07:53:46.424Z,7.82
2022-10-02T07:56:20.802Z,8.02
2022-10-02T07:58:58.450Z,7.40
2022-10-02T08:01:32.548Z,9.55
2022-10-02T08:04:05.279Z,8.27
2022-10-02T08:06:35.183Z,8.43
2022-10-02T08:09:31.985Z,6.88
2022-10-02T08:12:09.507Z,7.55
2022-10-02T08:14:42.876Z,6.47
2022-10-02T08:17:36.288Z,8.90
2022-10-02T08:20:49.758Z,9.40
2022-10-02T08:23:31.540Z,7.95
2022-10-02T08:26:16.948Z,10.13
2022-10-02T08:28:54.628Z,14.18
2022-10-02T08:31:24.034Z,8.20
2022-10-02T08:33:55.737Z,10.50
2022-10-02T08:36:39.571Z,6.90
2022-10-02T08:39:21.822Z,14.65
2022-10-02T08:42:36.167Z,5.90
2022-10-02T08:45:45.258Z,5.32
2022-10-02T08:48:35.449Z,8.00
2022-10-02T08:51:40.451Z,7.60
2022-10-02T08:54:24.148Z,7.18
2022-10-02T08:57:17.718Z,8.30
2022-10-02T09:00:15.039Z,6.57
2022-10-02T09:03:05.083Z,7.50
2022-10-02T09:06:01.476Z,7.30
2022-10-02T09:12:40.416Z,15.13
2022-10-02T09:15:18.578Z,7.22
2022-10-02T09:17:52.127Z,9.82
2022-10-02T09:21:16.055Z,6.50
2022-10-02T09:24:10.604Z,8.30
2022-10-02T09:27:20.928Z,9.25
2022-10-02T09:30:17.105Z,6.07
2022-10-02T09:32:54.607Z,11.75
2022-10-02T09:35:55.675Z,7.78
2022-10-02T09:38:54.480Z,11.82
2022-10-02T09:41:59.540Z,9.43
2022-10-02T09:44:52.209Z,8.43
2022-10-02T09:50:34.250Z,6.38
2022-10-02T09:53:32.706Z,7.13
2022-10-02T09:56:38.374Z,7.53
2022-10-02T09:59:22.025Z,9.80
2022-10-02T10:03:15.740Z,5.18
2022-10-02T10:05:39.430Z,4.82
2022-10-02T10:08:25.956Z,8.07
2022-10-02T10:11:22.252Z,6.53
2022-10-02T10:14:07.840Z,6.57
2022-10-02T10:17:20.728Z,8.13
2022-10-02T10:42:12.525Z,6.95
2022-10-02T10:45:37.173Z,5.88
2022-10-02T10:48:34.628Z,10.88
2022-10-02T10:52:00.125Z,8.07
2022-10-02T10:55:03.241Z,9.10
2022-10-02T10:58:06.442Z,5.78
2022-10-02T11:05:47.362Z,8.45
2022-10-02T11:12:54.269Z,8.23
2022-10-02T11:16:58.387Z,5.47
2022-10-02T11:20:21.618Z,4.90
2022-10-02T11:28:25.477Z,7.23
2022-10-02T11:32:03.390Z,7.20
2022-10-02T11:35:07.666Z,5.38
2022-10-02T11:38:29.340Z,5.07
2022-10-02T11:42:23.362Z,4.40
2022-10-02T11:45:41.899Z,6.93
2022-10-02T11:52:25.208Z,5.57
2022-10-02T11:55:25.561Z,4.97
2022-10-02T12:07:56.959Z,4.72
2022-10-02T12:24:28.126Z,4.97
2022-10-02T12:27:39.208Z,4.07
2022-10-02T12:30:23.816Z,5.35
2022-10-02T12:33:41.904Z,8.88
2022-10-02T12:36:34.762Z,7.97
2022-10-02T12:39:26.045Z,4.72
2022-10-02T12:42:15.807Z,3.88
2022-10-02T12:45:11.922Z,5.60
2022-10-02T12:47:57.837Z,3.75
2022-10-02T12:50:58.469Z,4.85
2022-10-02T12:54:09.947Z,4.20
2022-10-02T12:56:58.855Z,4.20
2022-10-02T13:00:30.631Z,6.72
2022-10-02T13:03:36.709Z,5.13
2022-10-02T13:07:05.752Z,4.13
2022-10-02T13:09:53.761Z,4.15
2022-10-02T13:12:54.304Z,3.65
2022-10-02T13:15:29.467Z,5.90
2022-10-02T13:18:25.619Z,3.95
2022-10-02T13:21:09.266Z,3.15
2022-10-02T13:24:14.826Z,6.13
2022-10-02T13:26:54.172Z,5.28
2022-10-02T13:29:52.630Z,5.63
2022-10-02T13:32:42.043Z,3.58
2022-10-02T13:35:29.952Z,4.68
2022-10-02T13:38:14.611Z,4.55
2022-10-02T13:40:48.200Z,3.97
2022-10-02T13:43:34.978Z,4.22
2022-10-02T13:46:42.825Z,5.20
2022-10-02T13:49:23.224Z,4.95
2022-10-02T13:52:02.494Z,5.75
2022-10-02T13:55:05.905Z,5.03
2022-10-02T13:57:59.875Z,3.28
2022-10-02T14:00:45.831Z,6.20
2022-10-02T14:03:28.093Z,6.37
2022-10-02T14:06:07.555Z,5.43
2022-10-02T14:09:00.684Z,3.83
2022-10-02T14:11:58.601Z,4.68
2022-10-02T14:15:05.757Z,2.67
2022-10-02T14:17:59.637Z,4.45
2022-10-02T14:20:40.130Z,4.53
2022-10-02T14:23:25.799Z,5.10
2022-10-02T14:26:33.140Z,4.25
2022-10-02T14:29:12.723Z,6.78
2022-10-02T14:32:03.074Z,5.00
2022-10-02T14:34:58.799Z,6.60
2022-10-02T14:37:54.188Z,4.75
2022-10-02T14:44:51.371Z,4.43
2022-10-02T14:52:18.697Z,4.85
2022-10-02T14:55:23.376Z,3.03
2022-10-02T14:58:18.056Z,5.50
2022-10-02T15:01:06.765Z,8.00
2022-10-02T15:04:08.273Z,5.57
2022-10-02T15:07:04.761Z,6.00
2022-10-02T15:09:45.448Z,6.00
2022-10-02T15:12:19.897Z,9.32
2022-10-02T15:15:15.653Z,10.05
2022-10-02T15:18:17.646Z,7.63
2022-10-02T15:21:50.779Z,4.93
2022-10-02T15:24:58.393Z,4.50
2022-10-02T15:27:44.914Z,4.82
2022-10-02T15:30:20.654Z,4.88
2022-10-02T15:33:28.481Z,9.55
2022-10-02T15:36:16.850Z,7.20
2022-10-02T15:38:51.680Z,11.25
2022-10-02T15:41:36.443Z,7.75
2022-10-02T15:44:19.071Z,7.68
2022-10-02T15:47:25.881Z,5.63
2022-10-02T15:50:34.617Z,4.18
2022-10-02T15:53:06.036Z,6.15
2022-10-02T15:55:42.690Z,5.50
2022-10-02T15:58:36.335Z,5.15
2022-10-02T16:01:44.857Z,4.90
2022-10-02T16:04:46.939Z,6.55
2022-10-02T16:08:02.672Z,5.30
2022-10-02T16:10:42.619Z,5.68
2022-10-02T16:13:46.323Z,5.20
2022-10-02T16:16:41.055Z,5.47
2022-10-02T16:19:50.345Z,5.45
2022-10-02T16:22:50.600Z,5.60
2022-10-02T16:25:50.318Z,8.88
2022-10-02T16:28:50.174Z,8.13
2022-10-02T16:31:43.269Z,6.82
2022-10-02T16:34:16.033Z,10.15
2022-10-02T16:37:07.320Z,10.85
2022-10-02T16:39:36.282Z,14.93
2022-10-02T16:42:22.619Z,13.15
2022-10-02T16:45:15.693Z,10.27
2022-10-02T16:48:25.504Z,14.15
2022-10-02T16:51:35.958Z,12.07
2022-10-02T16:54:29.518Z,8.85
2022-10-02T16:57:25.060Z,19.58
2022-10-02T17:00:31.327Z,12.60
2022-10-02T17:03:25.856Z,11.27
2022-10-02T17:06:06.609Z,14.23
2022-10-02T17:08:53.940Z,18.13
2022-10-02T17:11:36.959Z,15.95
2022-10-02T17:14:14.940Z,19.52
2022-10-02T17:16:52.427Z,12.50
2022-10-02T17:19:28.620Z,12.52
2022-10-02T17:22:11.564Z,14.60
2022-10-02T17:25:11.639Z,14.98
2022-10-02T17:27:51.780Z,17.55
2022-10-02T17:30:24.452Z,13.55
2022-10-02T17:33:14.964Z,16.42
2022-10-02T17:36:18.973Z,13.40
2022-10-02T17:39:32.853Z,13.93
2022-10-02T17:42:46.759Z,9.90
2022-10-02T17:45:30.313Z,10.15
2022-10-02T17:48:35.439Z,12.68
2022-10-02T17:51:47.120Z,10.95
2022-10-02T17:54:51.020Z,10.63
2022-10-02T17:57:31.823Z,17.50
2022-10-02T18:00:14.027Z,10.13
2022-10-02T18:03:01.523Z,12.13
2022-10-02T18:05:51.425Z,13.73
2022-10-02T18:08:40.653Z,9.10
2022-10-02T18:11:37.293Z,12.30
2022-10-02T18:14:16.842Z,13.30
2022-10-02T18:17:19.072Z,15.32
2022-10-02T18:24:35.519Z,25.00
2022-10-02T18:27:37.732Z,14.38
2022-10-02T18:30:23.708Z,11.13
2022-10-02T18:33:25.516Z,12.52
2022-10-02T18:36:20.684Z,13.32
2022-10-02T18:39:01.081Z,14.88
2022-10-02T18:41:33.283Z,9.85
2022-10-02T18:44:27.510Z,11.45
2022-10-02T18:47:02.814Z,11.35
2022-10-02T18:50:22.181Z,16.45
2022-10-02T18:52:50.700Z,22.40
2022-10-02T18:56:27.533Z,12.05
2022-10-02T18:59:15.749Z,10.30
2022-10-02T19:02:14.576Z,10.20
2022-10-02T19:05:30.870Z,10.43
2022-10-02T19:08:05.294Z,19.17
2022-10-02T19:10:34.980Z,39.78
2022-10-02T19:13:30.413Z,27.80
2022-10-02T19:16:17.649Z,14.77
2022-10-02T19:19:51.823Z,15.20
2022-10-02T19:23:01.972Z,16.50
2022-10-02T19:25:54.753Z,19.55
2022-10-02T19:28:33.145Z,45.30
2022-10-02T19:31:23.776Z,30.02
2022-10-02T19:34:49.786Z,21.77
2022-10-02T19:37:19.064Z,21.17
2022-10-02T19:40:01.808Z,37.60
2022-10-02T19:42:57.643Z,18.35
2022-10-02T19:45:34.975Z,14.60
2022-10-02T19:48:06.994Z,23.13
2022-10-02T19:50:43.584Z,13.50
2022-10-02T19:53:36.420Z,22.30
2022-10-02T19:56:17.103Z,36.55
2022-10-02T19:58:56.610Z,17.08
2022-10-02T20:01:42.286Z,16.95
2022-10-02T20:04:23.058Z,19.50
2022-10-02T20:06:59.944Z,19.10
2022-10-02T20:10:01.051Z,16.48
2022-10-02T20:12:41.178Z,33.83
2022-10-02T20:16:22.786Z,17.92
2022-10-02T20:18:52.653Z,34.92
2022-10-02T20:21:42.115Z,13.07
2022-10-02T20:24:42.960Z,19.63
2022-10-02T20:27:42.780Z,51.45
2022-10-02T20:30:15.003Z,101.88
2022-10-02T20:33:02.269Z,57.00
2022-10-02T20:35:40.527Z,41.50
2022-10-02T20:38:25.607Z,20.90
2022-10-02T20:40:56.604Z,12.13
2022-10-02T20:43:49.218Z,11.30
2022-10-02T20:47:04.937Z,11.45
2022-10-02T20:50:04.674Z,11.25
2022-10-02T20:53:18.281Z,10.18
2022-10-02T20:55:46.572Z,15.00
2022-10-02T20:58:21.148Z,18.02
2022-10-02T21:01:38.263Z,13.95
2022-10-02T21:04:39.130Z,16.35
2022-10-02T21:07:27.524Z,13.02
2022-10-02T21:10:08.609Z,12.70
2022-10-02T21:13:14.640Z,18.15
2022-10-02T21:16:10.780Z,13.63
2022-10-02T21:18:48.224Z,11.93
2022-10-02T21:21:39.802Z,13.70
2022-10-02T21:24:17.701Z,14.82
2022-10-02T21:27:05.190Z,17.15
2022-10-02T21:29:53.313Z,11.77
2022-10-02T21:32:39.750Z,9.68
2022-10-02T21:35:34.840Z,9.43
2022-10-02T21:38:28.348Z,12.18
2022-10-02T21:41:22.677Z,10.27
2022-10-02T21:44:03.400Z,14.30
2022-10-02T21:47:09.638Z,16.85
2022-10-02T21:49:49.721Z,16.75
2022-10-02T21:52:43.047Z,9.80
2022-10-02T21:55:32.733Z,18.08
2022-10-02T21:58:48.526Z,9.07
2022-10-02T22:02:07.753Z,13.48
2022-10-02T22:05:01.694Z,12.68
2022-10-02T22:07:37.902Z,11.65
2022-10-02T22:10:17.879Z,7.70
2022-10-02T22:13:23.453Z,7.75
2022-10-02T22:16:11.597Z,8.70
2022-10-02T22:19:20.013Z,9.18
2022-10-02T22:22:00.111Z,6.80
2022-10-02T22:24:47.254Z,8.55
2022-10-02T22:27:33.490Z,8.27
2022-10-02T22:30:02.862Z,8.20
2022-10-02T22:33:04.123Z,10.18
2022-10-02T22:35:44.865Z,11.07
2022-10-02T22:38:54.491Z,8.02
2022-10-02T22:41:34.239Z,10.15
2022-10-02T22:44:18.158Z,8.35
2022-10-02T22:46:57.792Z,7.50
2022-10-02T22:49:39.472Z,11.25
2022-10-02T22:52:20.901Z,6.13
2022-10-02T22:55:03.581Z,12.75
2022-10-02T22:58:34.330Z,6.28
2022-10-02T23:01:21.391Z,8.68
2022-10-02T23:03:57.099Z,5.15
2022-10-02T23:06:36.636Z,6.97
2022-10-02T23:09:28.001Z,10.18
2022-10-02T23:12:28.358Z,12.07
2022-10-02T23:15:30.236Z,7.63
2022-10-02T23:18:43.396Z,8.05
2022-10-02T23:21:28.720Z,7.95
2022-10-02T23:24:02.885Z,8.82
2022-10-02T23:27:10.815Z,7.43
2022-10-02T23:29:41.953Z,10.88
2022-10-02T23:32:24.667Z,7.22
2022-10-02T23:35:15.267Z,6.40
2022-10-02T23:37:52.091Z,9.18
2022-10-02T23:40:48.142Z,8.48
2022-10-02T23:43:30.144Z,9.93
2022-10-02T23:46:10.969Z,11.98
2022-10-02T23:48:39.720Z,7.45
2022-10-02T23:51:32.807Z,6.95
2022-10-02T23:54:33.473Z,6.53
2022-10-02T23:57:39.562Z,6.82
